createdAt,value
2018-08-28T00:01:32.803Z,4.27
2018-08-28T00:04:01.500Z,4.07
2018-08-28T00:06:29.967Z,3.70
2018-08-28T00:08:58.374Z,3.67
2018-08-28T00:11:26.774Z,3.63
2018-08-28T00:13:55.394Z,3.97
2018-08-28T00:16:23.864Z,3.80
2018-08-28T00:18:52.288Z,3.90
2018-08-28T00:21:20.691Z,3.50
2018-08-28T00:23:49.299Z,3.50
2018-08-28T00:26:17.794Z,3.60
2018-08-28T00:28:46.182Z,3.80
2018-08-28T00:31:14.604Z,3.93
2018-08-28T00:33:43.242Z,3.37
2018-08-28T00:36:11.732Z,3.63
2018-08-28T00:38:40.153Z,3.83
2018-08-28T00:41:08.548Z,3.63
2018-08-28T00:43:36.971Z,3.60
2018-08-28T00:46:05.388Z,3.73
2018-08-28T00:48:33.799Z,3.50
2018-08-28T00:51:02.179Z,3.93
2018-08-28T00:53:30.576Z,3.50
2018-08-28T00:55:58.990Z,3.77
2018-08-28T00:58:27.374Z,3.73
2018-08-28T01:00:56.012Z,3.60
2018-08-28T01:03:24.519Z,3.43
2018-08-28T01:05:52.903Z,3.60
2018-08-28T01:08:21.299Z,3.60
2018-08-28T01:10:49.756Z,3.63
2018-08-28T01:13:18.137Z,3.90
2018-08-28T01:15:46.527Z,3.73
2018-08-28T01:18:14.943Z,3.50
2018-08-28T01:20:43.349Z,3.40
2018-08-28T01:23:11.739Z,3.83
2018-08-28T01:25:40.156Z,3.60
2018-08-28T01:28:08.537Z,3.47
2018-08-28T01:30:36.932Z,3.73
2018-08-28T01:33:06.360Z,3.03
2018-08-28T01:35:34.885Z,3.50
2018-08-28T01:38:03.307Z,3.20
2018-08-28T01:40:31.770Z,3.47
2018-08-28T01:43:00.374Z,3.70
2018-08-28T01:45:28.952Z,3.70
2018-08-28T01:47:57.367Z,3.83
2018-08-28T01:50:25.738Z,3.23
2018-08-28T01:52:54.123Z,3.47
2018-08-28T01:55:22.551Z,3.90
2018-08-28T01:57:50.933Z,3.60
2018-08-28T02:00:19.321Z,3.10
2018-08-28T02:02:47.727Z,3.70
2018-08-28T02:05:17.146Z,3.53
2018-08-28T02:07:45.551Z,3.40
2018-08-28T02:10:13.958Z,3.63
2018-08-28T02:12:42.355Z,3.53
2018-08-28T02:15:10.727Z,4.57
2018-08-28T02:17:39.383Z,3.40
2018-08-28T02:20:07.950Z,3.13
2018-08-28T02:22:36.351Z,3.47
2018-08-28T02:25:05.208Z,3.90
2018-08-28T02:27:33.594Z,3.40
2018-08-28T02:30:01.973Z,3.53
2018-08-28T02:32:30.419Z,3.90
2018-08-28T02:34:58.797Z,3.80
2018-08-28T02:37:27.472Z,3.53
2018-08-28T02:39:56.114Z,3.40
2018-08-28T02:42:24.515Z,3.40
2018-08-28T02:44:53.097Z,4.10
2018-08-28T02:47:21.491Z,3.63
2018-08-28T02:49:49.879Z,3.70
2018-08-28T02:52:18.264Z,3.60
2018-08-28T02:54:46.651Z,3.83
2018-08-28T02:57:15.039Z,3.90
2018-08-28T02:59:43.418Z,3.90
2018-08-28T03:02:11.823Z,3.90
2018-08-28T03:04:40.207Z,3.67
2018-08-28T03:07:08.612Z,4.03
2018-08-28T03:09:37.290Z,3.80
2018-08-28T03:12:05.682Z,3.87
2018-08-28T03:14:34.053Z,4.00
2018-08-28T03:17:02.478Z,3.77
2018-08-28T03:19:30.856Z,3.53
2018-08-28T03:21:59.455Z,4.13
2018-08-28T03:24:28.167Z,3.73
2018-08-28T03:26:56.562Z,3.73
2018-08-28T03:29:24.953Z,3.67
2018-08-28T03:31:53.371Z,4.27
2018-08-28T03:34:22.014Z,4.03
2018-08-28T03:36:50.475Z,3.90
2018-08-28T03:39:19.112Z,3.80
2018-08-28T03:41:47.482Z,3.80
2018-08-28T03:44:15.908Z,4.30
2018-08-28T03:46:44.318Z,3.40
2018-08-28T03:49:12.730Z,4.07
2018-08-28T03:51:41.111Z,4.10
2018-08-28T03:54:09.832Z,4.27
2018-08-28T03:56:38.230Z,3.70
2018-08-28T03:59:06.624Z,4.23
2018-08-28T04:01:35.039Z,4.43
2018-08-28T04:04:03.661Z,3.67
2018-08-28T04:06:32.359Z,4.60
2018-08-28T04:09:00.859Z,4.53
2018-08-28T04:11:29.263Z,4.03
2018-08-28T04:13:57.656Z,4.13
2018-08-28T04:16:26.063Z,3.83
2018-08-28T04:18:54.457Z,3.67
2018-08-28T04:21:22.851Z,3.80
2018-08-28T04:23:51.268Z,4.23
2018-08-28T04:26:19.663Z,3.83
2018-08-28T04:28:48.048Z,3.90
2018-08-28T04:31:16.473Z,3.73
2018-08-28T04:33:44.855Z,3.87
2018-08-28T04:36:13.235Z,4.33
2018-08-28T04:38:41.664Z,4.27
2018-08-28T04:41:10.428Z,4.67
2018-08-28T04:43:38.944Z,3.97
2018-08-28T04:46:07.772Z,4.27
2018-08-28T04:48:36.451Z,3.80
2018-08-28T04:51:05.031Z,3.93
2018-08-28T04:53:33.441Z,4.10
2018-08-28T04:56:01.832Z,3.57
2018-08-28T04:58:30.234Z,3.53
2018-08-28T05:00:58.652Z,3.87
2018-08-28T05:03:27.029Z,3.93
2018-08-28T05:05:55.419Z,4.10
2018-08-28T05:08:24.058Z,3.50
2018-08-28T05:10:52.545Z,3.30
2018-08-28T05:13:21.125Z,3.50
2018-08-28T05:15:49.809Z,4.23
2018-08-28T05:18:18.162Z,4.37
2018-08-28T05:20:46.558Z,4.57
2018-08-28T05:23:14.950Z,4.30
2018-08-28T05:25:43.343Z,4.00
2018-08-28T05:28:11.731Z,4.13
2018-08-28T05:30:40.372Z,3.83
2018-08-28T05:33:08.847Z,3.63
2018-08-28T05:35:37.239Z,3.53
2018-08-28T05:38:05.699Z,3.37
2018-08-28T05:40:34.259Z,4.00
2018-08-28T05:43:02.740Z,3.33
2018-08-28T05:45:31.172Z,2.90
2018-08-28T05:47:59.565Z,3.63
2018-08-28T05:50:28.183Z,3.43
2018-08-28T05:52:56.783Z,3.97
2018-08-28T05:55:25.203Z,3.67
2018-08-28T05:57:53.620Z,3.50
2018-08-28T06:00:22.035Z,3.30
2018-08-28T06:02:50.429Z,4.03
2018-08-28T06:05:18.817Z,3.93
2018-08-28T06:07:47.227Z,3.90
2018-08-28T06:10:15.856Z,4.40
2018-08-28T06:12:44.571Z,4.20
2018-08-28T06:15:13.332Z,3.60
2018-08-28T06:17:41.801Z,4.30
2018-08-28T06:20:10.214Z,4.30
2018-08-28T06:22:38.652Z,4.17
2018-08-28T06:25:07.052Z,4.70
2018-08-28T06:27:35.450Z,4.53
2018-08-28T06:30:03.896Z,4.40
2018-08-28T06:32:32.283Z,3.93
2018-08-28T06:35:00.726Z,4.20
2018-08-28T06:37:29.220Z,4.20
2018-08-28T06:39:57.630Z,5.20
2018-08-28T06:42:26.024Z,4.50
2018-08-28T06:44:54.401Z,4.70
2018-08-28T06:47:22.811Z,5.67
2018-08-28T06:49:51.245Z,4.60
2018-08-28T06:52:19.867Z,4.83
2018-08-28T06:54:48.579Z,4.90
2018-08-28T06:57:17.260Z,4.90
2018-08-28T06:59:45.960Z,4.23
2018-08-28T07:02:14.445Z,3.90
2018-08-28T07:04:42.852Z,4.57
2018-08-28T07:07:11.268Z,4.60
2018-08-28T07:09:39.884Z,4.17
2018-08-28T07:12:08.339Z,4.30
2018-08-28T07:14:36.736Z,5.20
2018-08-28T07:17:05.118Z,4.63
2018-08-28T07:19:33.715Z,4.70
2018-08-28T07:23:05.278Z,4.97
2018-08-28T07:25:33.768Z,4.80
2018-08-28T07:28:02.352Z,5.10
2018-08-28T07:30:30.861Z,4.90
2018-08-28T07:32:59.247Z,4.70
2018-08-28T07:35:27.633Z,5.00
2018-08-28T07:37:56.037Z,5.03
2018-08-28T07:40:24.411Z,5.20
2018-08-28T07:42:52.815Z,4.27
2018-08-28T07:45:21.216Z,4.57
2018-08-28T07:47:49.648Z,4.63
2018-08-28T07:50:18.206Z,4.63
2018-08-28T07:52:46.594Z,4.10
2018-08-28T07:55:14.979Z,4.10
2018-08-28T07:57:43.363Z,4.17
2018-08-28T08:00:11.759Z,4.73
2018-08-28T08:02:40.153Z,4.23
2018-08-28T08:05:08.580Z,4.03
2018-08-28T08:07:37.012Z,4.97
2018-08-28T08:10:05.391Z,4.27
2018-08-28T08:12:33.788Z,4.20
2018-08-28T08:15:02.531Z,3.93
2018-08-28T08:17:31.011Z,3.97
2018-08-28T08:19:59.409Z,3.90
2018-08-28T08:22:28.057Z,4.08
2018-08-28T08:24:56.755Z,4.35
2018-08-28T08:27:25.248Z,3.77
2018-08-28T08:29:53.659Z,4.60
2018-08-28T08:32:22.077Z,4.20
2018-08-28T08:34:50.507Z,4.00
2018-08-28T08:37:18.924Z,4.60
2018-08-28T08:39:47.327Z,3.63
2018-08-28T08:42:16.545Z,3.80
2018-08-28T08:44:44.971Z,3.10
2018-08-28T08:47:13.379Z,3.97
2018-08-28T08:49:41.776Z,3.87
2018-08-28T08:52:10.459Z,3.63
2018-08-28T08:54:39.009Z,3.33
2018-08-28T08:57:07.374Z,3.90
2018-08-28T08:59:35.832Z,3.40
2018-08-28T09:02:04.228Z,3.50
2018-08-28T09:04:32.652Z,3.63
2018-08-28T09:07:01.064Z,2.93
2018-08-28T09:09:29.551Z,3.10
2018-08-28T09:11:58.194Z,3.13
2018-08-28T09:14:26.695Z,3.20
2018-08-28T09:16:55.116Z,3.40
2018-08-28T09:19:23.616Z,3.77
2018-08-28T09:21:51.987Z,3.57
2018-08-28T09:24:20.384Z,3.10
2018-08-28T09:26:48.796Z,2.90
2018-08-28T09:29:17.219Z,3.33
2018-08-28T09:31:45.675Z,3.03
2018-08-28T09:34:14.019Z,3.03
2018-08-28T09:36:42.440Z,3.10
2018-08-28T09:39:10.835Z,2.77
2018-08-28T09:41:39.259Z,3.17
2018-08-28T09:44:07.673Z,3.20
2018-08-28T09:46:36.075Z,2.57
2018-08-28T09:49:04.460Z,2.57
2018-08-28T09:51:32.891Z,3.00
2018-08-28T09:54:01.325Z,2.90
2018-08-28T09:56:29.729Z,2.60
2018-08-28T09:58:58.146Z,2.80
2018-08-28T10:01:31.980Z,2.77
2018-08-28T10:04:00.428Z,2.80
2018-08-28T10:06:28.831Z,3.10
2018-08-28T10:08:57.240Z,3.00
2018-08-28T10:11:25.666Z,2.93
2018-08-28T10:13:54.064Z,3.00
2018-08-28T10:16:22.464Z,2.80
2018-08-28T10:18:50.880Z,3.13
2018-08-28T10:21:19.287Z,3.00
2018-08-28T10:23:47.917Z,2.70
2018-08-28T10:26:16.341Z,2.83
2018-08-28T10:28:44.742Z,3.20
2018-08-28T10:31:13.143Z,3.00
2018-08-28T10:33:41.573Z,2.63
2018-08-28T10:36:09.995Z,2.70
2018-08-28T10:38:38.401Z,2.63
2018-08-28T10:41:06.811Z,2.90
2018-08-28T10:43:35.228Z,2.87
2018-08-28T10:46:03.650Z,2.70
2018-08-28T10:48:32.408Z,2.63
2018-08-28T10:51:00.799Z,3.20
2018-08-28T10:53:29.227Z,2.72
2018-08-28T10:55:57.679Z,2.70
2018-08-28T10:58:26.152Z,3.15
2018-08-28T11:00:54.547Z,2.70
2018-08-28T11:03:23.248Z,2.87
2018-08-28T11:05:51.817Z,2.80
2018-08-28T11:08:20.615Z,2.97
2018-08-28T11:10:48.996Z,2.90
2018-08-28T11:13:17.384Z,2.70
2018-08-28T11:15:45.868Z,2.97
2018-08-28T11:18:14.296Z,3.10
2018-08-28T11:20:42.699Z,3.23
2018-08-28T11:23:11.103Z,3.00
2018-08-28T11:25:39.536Z,2.70
2018-08-28T11:28:07.932Z,2.97
2018-08-28T11:30:36.483Z,2.97
2018-08-28T11:33:04.903Z,2.50
2018-08-28T11:35:33.303Z,3.00
2018-08-28T11:38:01.712Z,2.70
2018-08-28T11:40:30.135Z,2.80
2018-08-28T11:42:58.541Z,3.17
2018-08-28T11:45:26.918Z,2.27
2018-08-28T11:47:55.335Z,2.50
2018-08-28T11:50:23.721Z,2.50
2018-08-28T11:52:52.114Z,2.80
2018-08-28T11:55:20.770Z,2.80
2018-08-28T11:57:49.287Z,2.57
2018-08-28T12:00:22.713Z,2.50
2018-08-28T12:02:51.131Z,2.40
2018-08-28T12:05:19.559Z,2.70
2018-08-28T12:07:48.001Z,2.60
2018-08-28T12:10:16.338Z,2.40
2018-08-28T12:12:44.727Z,2.20
2018-08-28T12:15:13.135Z,2.70
2018-08-28T12:17:41.526Z,2.60
2018-08-28T12:20:10.739Z,2.50
2018-08-28T12:22:39.168Z,2.10
2018-08-28T12:25:08.070Z,2.40
2018-08-28T12:27:36.529Z,2.33
2018-08-28T12:30:05.343Z,2.60
2018-08-28T12:32:33.733Z,2.40
2018-08-28T12:35:02.348Z,2.20
2018-08-28T12:37:30.847Z,2.30
2018-08-28T12:39:59.249Z,2.50
2018-08-28T12:42:27.645Z,2.40
2018-08-28T12:44:56.292Z,2.27
2018-08-28T12:47:25.018Z,2.50
2018-08-28T12:49:53.681Z,2.57
2018-08-28T12:52:22.207Z,2.07
2018-08-28T12:54:50.638Z,2.77
2018-08-28T12:57:19.030Z,2.63
2018-08-28T12:59:47.854Z,3.07
2018-08-28T13:02:16.611Z,2.80
2018-08-28T13:04:45.051Z,2.40
2018-08-28T13:07:13.529Z,3.00
2018-08-28T13:09:41.878Z,2.53
2018-08-28T13:12:10.275Z,2.60
2018-08-28T13:14:38.962Z,2.30
2018-08-28T13:17:07.628Z,2.93
2018-08-28T13:19:36.388Z,3.00
2018-08-28T13:22:04.901Z,2.33
2018-08-28T13:24:33.295Z,2.50
2018-08-28T13:27:01.705Z,3.20
2018-08-28T13:29:30.251Z,2.70
2018-08-28T13:31:58.654Z,2.50
2018-08-28T13:34:27.124Z,2.63
2018-08-28T13:36:55.534Z,3.07
2018-08-28T13:39:24.149Z,2.83
2018-08-28T13:41:52.645Z,3.03
2018-08-28T13:44:21.107Z,2.90
2018-08-28T13:46:49.616Z,3.53
2018-08-28T13:49:18.200Z,2.93
2018-08-28T13:51:46.893Z,2.70
2018-08-28T13:54:15.499Z,2.83
2018-08-28T13:56:43.792Z,2.80
2018-08-28T13:59:12.216Z,3.13
2018-08-28T14:01:40.647Z,2.50
2018-08-28T14:04:09.035Z,2.60
2018-08-28T14:06:37.895Z,2.43
2018-08-28T14:09:06.401Z,2.60
2018-08-28T14:11:34.928Z,2.67
2018-08-28T14:14:03.390Z,2.43
2018-08-28T14:16:32.012Z,2.57
2018-08-28T14:19:00.500Z,2.80
2018-08-28T14:21:28.931Z,2.40
2018-08-28T14:23:57.336Z,3.10
2018-08-28T14:26:25.720Z,2.60
2018-08-28T14:28:54.288Z,2.50
2018-08-28T14:31:22.631Z,2.70
2018-08-28T14:33:51.027Z,2.87
2018-08-28T14:36:19.468Z,2.67
2018-08-28T14:38:47.880Z,2.50
2018-08-28T14:41:16.272Z,2.43
2018-08-28T14:43:44.686Z,2.47
2018-08-28T14:46:13.093Z,2.60
2018-08-28T14:48:41.497Z,2.97
2018-08-28T14:51:09.915Z,3.10
2018-08-28T14:53:38.569Z,2.70
2018-08-28T14:56:07.068Z,3.20
2018-08-28T14:58:35.491Z,2.50
2018-08-28T15:01:03.907Z,2.63
2018-08-28T15:03:32.310Z,2.33
2018-08-28T15:06:00.800Z,2.93
2018-08-28T15:08:29.196Z,2.43
2018-08-28T15:10:57.601Z,2.30
2018-08-28T15:13:26.280Z,2.70
2018-08-28T15:15:55.012Z,2.40
2018-08-28T15:18:23.507Z,2.40
2018-08-28T15:20:51.950Z,2.70
2018-08-28T15:23:20.300Z,2.30
2018-08-28T15:25:48.698Z,2.60
2018-08-28T15:28:17.471Z,2.80
2018-08-28T15:30:45.876Z,2.40
2018-08-28T15:33:14.271Z,2.57
2018-08-28T15:35:42.693Z,2.67
2018-08-28T15:38:11.095Z,2.80
2018-08-28T15:40:39.508Z,2.90
2018-08-28T15:43:07.999Z,2.50
2018-08-28T15:45:36.544Z,2.77
2018-08-28T15:48:05.026Z,2.67
2018-08-28T15:50:33.452Z,2.53
2018-08-28T15:53:01.847Z,2.47
2018-08-28T15:55:30.286Z,2.53
2018-08-28T15:57:58.684Z,2.60
2018-08-28T16:00:27.088Z,2.67
2018-08-28T16:02:55.487Z,3.07
2018-08-28T16:05:23.934Z,2.40
2018-08-28T16:07:52.349Z,2.90
2018-08-28T16:10:20.768Z,2.90
2018-08-28T16:12:49.186Z,2.63
2018-08-28T16:15:17.575Z,2.87
2018-08-28T16:17:45.964Z,2.70
2018-08-28T16:20:14.419Z,2.90
2018-08-28T16:22:45.780Z,2.73
2018-08-28T16:25:14.266Z,2.60
2018-08-28T16:27:42.740Z,2.80
2018-08-28T16:30:11.379Z,2.80
2018-08-28T16:32:39.992Z,2.70
2018-08-28T16:35:08.808Z,2.80
2018-08-28T16:37:37.360Z,2.67
2018-08-28T16:40:05.978Z,2.93
2018-08-28T16:42:35.103Z,2.97
2018-08-28T16:45:03.568Z,3.00
2018-08-28T16:47:32.333Z,2.87
2018-08-28T16:50:00.870Z,2.80
2018-08-28T16:52:29.253Z,3.43
2018-08-28T16:54:57.678Z,3.50
2018-08-28T16:57:26.125Z,3.00
2018-08-28T16:59:54.755Z,3.13
2018-08-28T17:02:23.268Z,2.80
2018-08-28T17:04:51.700Z,3.07
2018-08-28T17:07:20.116Z,3.67
2018-08-28T17:09:48.512Z,2.90
2018-08-28T17:12:17.012Z,2.87
2018-08-28T17:14:45.552Z,3.23
2018-08-28T17:17:13.856Z,3.27
2018-08-28T17:19:42.308Z,3.20
2018-08-28T17:22:10.950Z,3.17
2018-08-28T17:24:39.954Z,3.43
2018-08-28T17:27:08.568Z,2.73
2018-08-28T17:29:37.075Z,2.83
2018-08-28T17:32:05.648Z,2.90
2018-08-28T17:34:34.087Z,3.17
2018-08-28T17:37:02.567Z,3.20
2018-08-28T17:39:31.135Z,2.63
2018-08-28T17:41:59.884Z,3.43
2018-08-28T17:44:28.615Z,2.80
2018-08-28T17:46:57.068Z,3.00
2018-08-28T17:49:25.584Z,3.23
2018-08-28T17:51:54.007Z,2.80
2018-08-28T17:54:22.688Z,3.37
2018-08-28T17:56:51.381Z,2.80
2018-08-28T17:59:19.924Z,3.03
2018-08-28T18:01:48.627Z,3.00
2018-08-28T18:04:17.208Z,3.17
2018-08-28T18:06:45.839Z,3.07
2018-08-28T18:09:20.206Z,3.17
2018-08-28T18:11:48.689Z,3.40
2018-08-28T18:14:17.301Z,2.90
2018-08-28T18:16:46.025Z,2.93
2018-08-28T18:19:14.727Z,3.03
2018-08-28T18:21:43.412Z,3.03
2018-08-28T18:24:13.409Z,3.30
2018-08-28T18:26:42.643Z,3.10
2018-08-28T18:29:11.116Z,3.47
2018-08-28T18:31:39.572Z,3.23
2018-08-28T18:34:07.972Z,3.80
2018-08-28T18:36:36.356Z,3.90
2018-08-28T18:39:05.723Z,4.43
2018-08-28T18:41:34.512Z,4.90
2018-08-28T18:44:02.796Z,5.07
2018-08-28T18:46:31.216Z,6.73
2018-08-28T18:49:00.617Z,5.63
2018-08-28T18:51:29.408Z,5.30
2018-08-28T18:53:58.048Z,5.00
2018-08-28T18:56:26.676Z,5.20
2018-08-28T18:58:55.528Z,4.87
2018-08-28T19:01:34.450Z,5.40
2018-08-28T19:04:04.478Z,6.03
2018-08-28T19:06:33.141Z,5.20
2018-08-28T19:09:01.688Z,5.50
2018-08-28T19:11:30.581Z,4.77
2018-08-28T19:13:59.263Z,4.10
2018-08-28T19:16:28.071Z,4.23
2018-08-28T19:18:56.499Z,5.50
2018-08-28T19:21:24.926Z,5.20
2018-08-28T19:23:53.370Z,6.17
2018-08-28T19:26:21.768Z,5.40
2018-08-28T19:28:50.271Z,5.70
2018-08-28T19:31:18.904Z,7.13
2018-08-28T19:33:47.595Z,6.27
2018-08-28T19:36:16.382Z,7.80
2018-08-28T19:38:44.985Z,11.10
2018-08-28T19:41:13.371Z,11.33
2018-08-28T19:43:41.763Z,8.07
2018-08-28T19:46:10.206Z,6.00
2018-08-28T19:48:38.615Z,4.20
2018-08-28T19:51:06.998Z,5.47
2018-08-28T19:53:35.682Z,4.37
2018-08-28T19:56:04.011Z,4.07
2018-08-28T19:58:32.403Z,5.13
2018-08-28T20:01:00.810Z,4.43
2018-08-28T20:03:29.236Z,3.97
2018-08-28T20:05:57.623Z,3.50
2018-08-28T20:08:26.031Z,3.90
2018-08-28T20:10:54.424Z,3.83
2018-08-28T20:13:23.052Z,3.57
2018-08-28T20:15:51.544Z,3.57
2018-08-28T20:18:19.947Z,3.43
2018-08-28T20:20:53.463Z,3.40
2018-08-28T20:23:21.979Z,3.37
2018-08-28T20:25:50.700Z,3.10
2018-08-28T20:28:19.194Z,3.80
2018-08-28T20:30:47.579Z,3.70
2018-08-28T20:33:15.984Z,3.60
2018-08-28T20:35:44.620Z,3.63
2018-08-28T20:38:13.115Z,3.57
2018-08-28T20:40:41.515Z,3.50
2018-08-28T20:43:09.944Z,3.67
2018-08-28T20:45:38.346Z,3.47
2018-08-28T20:48:06.736Z,3.80
2018-08-28T20:50:35.272Z,3.03
2018-08-28T20:53:03.655Z,4.00
2018-08-28T20:55:32.280Z,3.50
2018-08-28T20:58:00.847Z,3.57
2018-08-28T21:00:29.500Z,3.50
2018-08-28T21:02:58.079Z,3.63
2018-08-28T21:05:27.364Z,3.53
2018-08-28T21:07:56.315Z,3.60
2018-08-28T21:10:24.727Z,3.00
2018-08-28T21:12:53.224Z,3.57
2018-08-28T21:15:21.820Z,3.33
2018-08-28T21:17:50.333Z,3.60
2018-08-28T21:20:18.772Z,4.73
2018-08-28T21:22:47.183Z,4.30
2018-08-28T21:25:15.855Z,3.87
2018-08-28T21:27:44.363Z,4.37
2018-08-28T21:30:12.771Z,4.50
2018-08-28T21:32:41.168Z,4.90
2018-08-28T21:35:09.579Z,4.60
2018-08-28T21:37:37.994Z,4.73
2018-08-28T21:40:06.390Z,4.13
2018-08-28T21:42:34.807Z,4.33
2018-08-28T21:45:03.263Z,4.73
2018-08-28T21:47:31.643Z,4.57
2018-08-28T21:50:00.089Z,4.07
2018-08-28T21:52:28.440Z,4.53
2018-08-28T21:54:56.842Z,3.97
2018-08-28T21:57:25.271Z,3.57
2018-08-28T21:59:53.713Z,3.70
2018-08-28T22:02:22.115Z,3.60
2018-08-28T22:04:50.503Z,3.87
2018-08-28T22:07:24.313Z,3.97
2018-08-28T22:09:52.723Z,3.90
2018-08-28T22:12:21.115Z,3.57
2018-08-28T22:14:49.508Z,3.77
2018-08-28T22:17:17.952Z,4.03
2018-08-28T22:19:46.331Z,3.97
2018-08-28T22:22:14.718Z,3.90
2018-08-28T22:24:43.384Z,3.90
2018-08-28T22:27:11.759Z,4.40
2018-08-28T22:29:40.155Z,4.53
2018-08-28T22:32:08.567Z,3.70
2018-08-28T22:34:36.965Z,3.70
2018-08-28T22:37:05.478Z,3.87
2018-08-28T22:39:34.074Z,3.47
2018-08-28T22:42:02.471Z,3.87
2018-08-28T22:44:30.888Z,4.13
2018-08-28T22:46:59.294Z,3.90
2018-08-28T22:49:27.687Z,4.20
2018-08-28T22:51:56.083Z,3.40
2018-08-28T22:54:24.509Z,4.10
2018-08-28T22:56:52.875Z,3.97
2018-08-28T22:59:21.259Z,3.87
2018-08-28T23:01:49.686Z,3.90
2018-08-28T23:04:18.071Z,4.13
2018-08-28T23:06:46.448Z,4.00
2018-08-28T23:09:14.851Z,4.40
2018-08-28T23:11:43.248Z,3.77
2018-08-28T23:14:11.627Z,4.17
2018-08-28T23:16:40.043Z,4.40
2018-08-28T23:19:08.653Z,4.30
2018-08-28T23:21:37.126Z,4.40
2018-08-28T23:24:05.532Z,4.00
2018-08-28T23:26:33.917Z,4.87
2018-08-28T23:29:02.308Z,4.33
2018-08-28T23:31:30.748Z,4.70
2018-08-28T23:33:59.137Z,4.80
2018-08-28T23:36:27.538Z,4.27
2018-08-28T23:38:56.192Z,4.07
2018-08-28T23:41:24.771Z,4.90
2018-08-28T23:43:53.159Z,4.70
2018-08-28T23:46:21.556Z,4.97
2018-08-28T23:48:50.156Z,4.87
2018-08-28T23:51:18.859Z,5.33
2018-08-28T23:53:47.366Z,4.83
2018-08-28T23:56:15.739Z,4.43
2018-08-28T23:58:44.135Z,4.43
